sensor_id;sensor_type;location;lat;lon;timestamp;temperature;humidity
39657;DHT22;25337;51.478;7.510;2024-01-16T00:00:15;0.30;99.90
39657;DHT22;25337;51.478;7.510;2024-01-16T00:02:41;0.30;99.90
39657;DHT22;25337;51.478;7.510;2024-01-16T00:05:06;0.30;99.90
39657;DHT22;25337;51.478;7.510;2024-01-16T00:07:32;0.30;99.90
39657;DHT22;25337;51.478;7.510;2024-01-16T00:10:00;0.30;99.90
39657;DHT22;25337;51.478;7.510;2024-01-16T00:12:25;0.30;99.90
39657;DHT22;25337;51.478;7.510;2024-01-16T00:14:51;0.30;99.90
39657;DHT22;25337;51.478;7.510;2024-01-16T00:17:16;0.30;99.90
39657;DHT22;25337;51.478;7.510;2024-01-16T00:19:42;0.30;99.90
39657;DHT22;25337;51.478;7.510;2024-01-16T00:22:08;0.30;99.90
39657;DHT22;25337;51.478;7.510;2024-01-16T00:24:33;0.30;99.90
39657;DHT22;25337;51.478;7.510;2024-01-16T00:26:59;0.30;99.90
39657;DHT22;25337;51.478;7.510;2024-01-16T00:29:24;0.30;99.90
39657;DHT22;25337;51.478;7.510;2024-01-16T00:31:50;0.30;99.90
39657;DHT22;25337;51.478;7.510;2024-01-16T00:34:16;0.30;99.90
39657;DHT22;25337;51.478;7.510;2024-01-16T00:36:41;0.30;99.90
39657;DHT22;25337;51.478;7.510;2024-01-16T00:39:07;0.30;99.90
39657;DHT22;25337;51.478;7.510;2024-01-16T00:41:33;0.30;99.90
39657;DHT22;25337;51.478;7.510;2024-01-16T00:43:59;0.30;99.90
39657;DHT22;25337;51.478;7.510;2024-01-16T00:46:24;0.30;99.90
39657;DHT22;25337;51.478;7.510;2024-01-16T00:48:50;0.30;99.90
39657;DHT22;25337;51.478;7.510;2024-01-16T00:51:15;0.30;99.90
39657;DHT22;25337;51.478;7.510;2024-01-16T00:53:42;0.30;99.90
39657;DHT22;25337;51.478;7.510;2024-01-16T00:56:08;0.30;99.90
39657;DHT22;25337;51.478;7.510;2024-01-16T00:58:33;0.30;99.90
39657;DHT22;25337;51.478;7.510;2024-01-16T01:00:59;0.20;99.90
39657;DHT22;25337;51.478;7.510;2024-01-16T01:03:25;0.20;99.90
39657;DHT22;25337;51.478;7.510;2024-01-16T01:05:51;0.30;99.90
39657;DHT22;25337;51.478;7.510;2024-01-16T01:08:18;0.30;99.90
39657;DHT22;25337;51.478;7.510;2024-01-16T01:10:44;0.20;99.90
39657;DHT22;25337;51.478;7.510;2024-01-16T01:13:10;0.30;99.90
39657;DHT22;25337;51.478;7.510;2024-01-16T01:15:36;0.30;99.90
39657;DHT22;25337;51.478;7.510;2024-01-16T01:18:01;0.30;99.90
39657;DHT22;25337;51.478;7.510;2024-01-16T01:20:27;0.30;99.90
39657;DHT22;25337;51.478;7.510;2024-01-16T01:22:52;0.20;99.90
39657;DHT22;25337;51.478;7.510;2024-01-16T01:25:18;0.30;99.90
39657;DHT22;25337;51.478;7.510;2024-01-16T01:27:45;0.20;99.90
39657;DHT22;25337;51.478;7.510;2024-01-16T01:30:11;0.20;99.90
39657;DHT22;25337;51.478;7.510;2024-01-16T01:32:37;0.10;99.90
39657;DHT22;25337;51.478;7.510;2024-01-16T01:35:04;0.10;99.90
39657;DHT22;25337;51.478;7.510;2024-01-16T01:37:30;0.00;99.90
39657;DHT22;25337;51.478;7.510;2024-01-16T01:39:55;-0.10;99.90
39657;DHT22;25337;51.478;7.510;2024-01-16T01:42:21;-0.10;99.90
39657;DHT22;25337;51.478;7.510;2024-01-16T01:44:47;-0.10;99.90
39657;DHT22;25337;51.478;7.510;2024-01-16T01:47:13;-0.10;99.90
39657;DHT22;25337;51.478;7.510;2024-01-16T01:49:39;0.00;99.90
39657;DHT22;25337;51.478;7.510;2024-01-16T01:52:05;0.00;99.90
39657;DHT22;25337;51.478;7.510;2024-01-16T01:54:36;0.00;99.90
39657;DHT22;25337;51.478;7.510;2024-01-16T01:57:02;0.00;99.90
39657;DHT22;25337;51.478;7.510;2024-01-16T01:59:29;0.00;99.90
39657;DHT22;25337;51.478;7.510;2024-01-16T02:01:56;0.00;99.90
39657;DHT22;25337;51.478;7.510;2024-01-16T02:04:22;-0.10;99.90
39657;DHT22;25337;51.478;7.510;2024-01-16T02:06:49;-0.10;99.90
39657;DHT22;25337;51.478;7.510;2024-01-16T02:09:15;-0.10;99.90
39657;DHT22;25337;51.478;7.510;2024-01-16T02:11:42;0.00;99.90
39657;DHT22;25337;51.478;7.510;2024-01-16T02:14:08;0.00;99.90
39657;DHT22;25337;51.478;7.510;2024-01-16T02:16:38;0.00;99.90
39657;DHT22;25337;51.478;7.510;2024-01-16T02:19:05;0.00;99.90
39657;DHT22;25337;51.478;7.510;2024-01-16T02:21:37;0.00;99.90
39657;DHT22;25337;51.478;7.510;2024-01-16T02:24:07;0.00;99.90
39657;DHT22;25337;51.478;7.510;2024-01-16T02:26:33;0.00;99.90
39657;DHT22;25337;51.478;7.510;2024-01-16T02:29:01;0.00;99.90
39657;DHT22;25337;51.478;7.510;2024-01-16T02:31:27;0.00;99.90
39657;DHT22;25337;51.478;7.510;2024-01-16T02:33:53;0.00;99.90
39657;DHT22;25337;51.478;7.510;2024-01-16T02:36:18;0.00;99.90
39657;DHT22;25337;51.478;7.510;2024-01-16T02:38:44;0.00;99.90
39657;DHT22;25337;51.478;7.510;2024-01-16T02:41:13;0.00;99.90
39657;DHT22;25337;51.478;7.510;2024-01-16T02:43:39;0.00;99.90
39657;DHT22;25337;51.478;7.510;2024-01-16T02:46:04;0.00;99.90
39657;DHT22;25337;51.478;7.510;2024-01-16T02:48:30;0.00;99.90
39657;DHT22;25337;51.478;7.510;2024-01-16T02:50:56;0.00;99.90
39657;DHT22;25337;51.478;7.510;2024-01-16T02:53:21;0.00;99.90
39657;DHT22;25337;51.478;7.510;2024-01-16T02:55:47;0.00;99.90
39657;DHT22;25337;51.478;7.510;2024-01-16T02:58:12;-0.10;99.90
39657;DHT22;25337;51.478;7.510;2024-01-16T03:00:38;-0.10;99.90
39657;DHT22;25337;51.478;7.510;2024-01-16T03:03:04;-0.10;99.90
39657;DHT22;25337;51.478;7.510;2024-01-16T03:05:30;-0.10;99.90
39657;DHT22;25337;51.478;7.510;2024-01-16T03:07:55;-0.10;99.90
39657;DHT22;25337;51.478;7.510;2024-01-16T03:10:21;-0.10;99.90
39657;DHT22;25337;51.478;7.510;2024-01-16T03:12:46;-0.10;99.90
39657;DHT22;25337;51.478;7.510;2024-01-16T03:15:12;-0.10;99.90
39657;DHT22;25337;51.478;7.510;2024-01-16T03:17:38;-0.10;99.90
39657;DHT22;25337;51.478;7.510;2024-01-16T03:20:04;-0.10;99.90
39657;DHT22;25337;51.478;7.510;2024-01-16T03:22:29;-0.10;99.90
39657;DHT22;25337;51.478;7.510;2024-01-16T03:24:55;0.00;99.90
39657;DHT22;25337;51.478;7.510;2024-01-16T03:27:20;0.00;99.90
39657;DHT22;25337;51.478;7.510;2024-01-16T03:29:46;0.00;99.90
39657;DHT22;25337;51.478;7.510;2024-01-16T03:32:12;0.10;99.90
39657;DHT22;25337;51.478;7.510;2024-01-16T03:34:37;0.10;99.90
39657;DHT22;25337;51.478;7.510;2024-01-16T03:37:03;0.10;99.90
39657;DHT22;25337;51.478;7.510;2024-01-16T03:39:29;0.10;99.90
39657;DHT22;25337;51.478;7.510;2024-01-16T03:41:55;0.10;99.90
39657;DHT22;25337;51.478;7.510;2024-01-16T03:44:20;0.10;99.90
39657;DHT22;25337;51.478;7.510;2024-01-16T03:46:46;0.10;99.90
39657;DHT22;25337;51.478;7.510;2024-01-16T03:49:12;0.20;99.90
39657;DHT22;25337;51.478;7.510;2024-01-16T03:51:37;0.20;99.90
39657;DHT22;25337;51.478;7.510;2024-01-16T03:54:03;0.10;99.90
39657;DHT22;25337;51.478;7.510;2024-01-16T03:56:29;0.10;99.90
39657;DHT22;25337;51.478;7.510;2024-01-16T03:58:55;0.10;99.90
39657;DHT22;25337;51.478;7.510;2024-01-16T04:01:33;0.20;99.90
39657;DHT22;25337;51.478;7.510;2024-01-16T04:03:59;0.20;99.90
39657;DHT22;25337;51.478;7.510;2024-01-16T04:06:25;0.20;99.90
39657;DHT22;25337;51.478;7.510;2024-01-16T04:08:51;0.20;99.90
39657;DHT22;25337;51.478;7.510;2024-01-16T04:11:17;0.20;99.90
39657;DHT22;25337;51.478;7.510;2024-01-16T04:13:43;0.20;99.90
39657;DHT22;25337;51.478;7.510;2024-01-16T04:16:08;0.20;99.90
39657;DHT22;25337;51.478;7.510;2024-01-16T04:18:36;0.20;99.90
39657;DHT22;25337;51.478;7.510;2024-01-16T04:21:03;0.20;99.90
39657;DHT22;25337;51.478;7.510;2024-01-16T04:23:29;0.20;99.90
39657;DHT22;25337;51.478;7.510;2024-01-16T04:25:54;0.20;99.90
39657;DHT22;25337;51.478;7.510;2024-01-16T04:28:20;0.20;99.90
39657;DHT22;25337;51.478;7.510;2024-01-16T04:30:45;0.20;99.90
39657;DHT22;25337;51.478;7.510;2024-01-16T04:33:11;0.30;99.90
39657;DHT22;25337;51.478;7.510;2024-01-16T04:35:37;0.30;99.90
39657;DHT22;25337;51.478;7.510;2024-01-16T04:38:02;0.30;99.90
39657;DHT22;25337;51.478;7.510;2024-01-16T04:40:28;0.30;99.90
39657;DHT22;25337;51.478;7.510;2024-01-16T04:42:54;0.20;99.90
39657;DHT22;25337;51.478;7.510;2024-01-16T04:45:19;0.20;99.90
39657;DHT22;25337;51.478;7.510;2024-01-16T04:47:45;0.30;99.90
39657;DHT22;25337;51.478;7.510;2024-01-16T04:50:11;0.30;99.90
39657;DHT22;25337;51.478;7.510;2024-01-16T04:52:37;0.30;99.90
39657;DHT22;25337;51.478;7.510;2024-01-16T04:55:03;0.30;99.90
39657;DHT22;25337;51.478;7.510;2024-01-16T04:57:29;0.30;99.90
39657;DHT22;25337;51.478;7.510;2024-01-16T04:59:54;0.30;99.90
39657;DHT22;25337;51.478;7.510;2024-01-16T05:02:20;0.30;99.90
39657;DHT22;25337;51.478;7.510;2024-01-16T05:04:46;0.30;99.90
39657;DHT22;25337;51.478;7.510;2024-01-16T05:07:15;0.20;99.90
39657;DHT22;25337;51.478;7.510;2024-01-16T05:09:40;0.20;99.90
39657;DHT22;25337;51.478;7.510;2024-01-16T05:12:06;0.20;99.90
39657;DHT22;25337;51.478;7.510;2024-01-16T05:14:32;0.20;99.90
39657;DHT22;25337;51.478;7.510;2024-01-16T05:16:57;0.20;99.90
39657;DHT22;25337;51.478;7.510;2024-01-16T05:19:23;0.20;99.90
39657;DHT22;25337;51.478;7.510;2024-01-16T05:21:48;2.50;99.90
39657;DHT22;25337;51.478;7.510;2024-01-16T05:24:14;0.20;99.90
39657;DHT22;25337;51.478;7.510;2024-01-16T05:26:40;0.20;99.90
39657;DHT22;25337;51.478;7.510;2024-01-16T05:29:05;0.30;99.90
39657;DHT22;25337;51.478;7.510;2024-01-16T05:31:32;0.30;99.90
39657;DHT22;25337;51.478;7.510;2024-01-16T05:33:57;0.30;99.90
39657;DHT22;25337;51.478;7.510;2024-01-16T05:36:23;0.30;99.90
39657;DHT22;25337;51.478;7.510;2024-01-16T05:38:50;0.20;99.90
39657;DHT22;25337;51.478;7.510;2024-01-16T05:41:15;0.30;99.90
39657;DHT22;25337;51.478;7.510;2024-01-16T05:43:41;0.30;99.90
39657;DHT22;25337;51.478;7.510;2024-01-16T05:46:07;0.30;99.90
39657;DHT22;25337;51.478;7.510;2024-01-16T05:48:32;0.30;99.90
39657;DHT22;25337;51.478;7.510;2024-01-16T05:50:58;0.20;99.90
39657;DHT22;25337;51.478;7.510;2024-01-16T05:53:23;0.20;99.90
39657;DHT22;25337;51.478;7.510;2024-01-16T05:55:49;0.20;99.90
39657;DHT22;25337;51.478;7.510;2024-01-16T05:58:14;0.20;99.90
39657;DHT22;25337;51.478;7.510;2024-01-16T06:00:40;0.30;99.90
39657;DHT22;25337;51.478;7.510;2024-01-16T06:03:06;0.30;99.90
39657;DHT22;25337;51.478;7.510;2024-01-16T06:05:31;0.30;99.90
39657;DHT22;25337;51.478;7.510;2024-01-16T06:07:57;0.30;99.90
39657;DHT22;25337;51.478;7.510;2024-01-16T06:10:22;0.30;99.90
39657;DHT22;25337;51.478;7.510;2024-01-16T06:12:48;0.30;99.90
39657;DHT22;25337;51.478;7.510;2024-01-16T06:15:14;0.30;99.90
39657;DHT22;25337;51.478;7.510;2024-01-16T06:17:40;0.30;99.90
39657;DHT22;25337;51.478;7.510;2024-01-16T06:20:06;0.30;99.90
39657;DHT22;25337;51.478;7.510;2024-01-16T06:22:32;0.30;99.90
39657;DHT22;25337;51.478;7.510;2024-01-16T06:24:57;0.30;99.90
39657;DHT22;25337;51.478;7.510;2024-01-16T06:27:23;0.30;99.90
39657;DHT22;25337;51.478;7.510;2024-01-16T06:29:48;0.40;99.90
39657;DHT22;25337;51.478;7.510;2024-01-16T06:32:14;0.40;99.90
39657;DHT22;25337;51.478;7.510;2024-01-16T06:34:40;0.30;99.90
39657;DHT22;25337;51.478;7.510;2024-01-16T06:37:06;0.30;99.90
39657;DHT22;25337;51.478;7.510;2024-01-16T06:39:31;0.30;99.90
39657;DHT22;25337;51.478;7.510;2024-01-16T06:41:57;0.30;99.90
39657;DHT22;25337;51.478;7.510;2024-01-16T06:44:22;0.30;99.90
39657;DHT22;25337;51.478;7.510;2024-01-16T06:46:48;0.30;99.90
39657;DHT22;25337;51.478;7.510;2024-01-16T06:49:13;0.30;99.90
39657;DHT22;25337;51.478;7.510;2024-01-16T06:51:39;0.30;99.90
39657;DHT22;25337;51.478;7.510;2024-01-16T06:54:05;0.30;99.90
39657;DHT22;25337;51.478;7.510;2024-01-16T06:56:31;0.30;99.90
39657;DHT22;25337;51.478;7.510;2024-01-16T06:58:56;0.30;99.90
39657;DHT22;25337;51.478;7.510;2024-01-16T07:01:22;0.30;99.90
39657;DHT22;25337;51.478;7.510;2024-01-16T07:03:48;0.30;99.90
39657;DHT22;25337;51.478;7.510;2024-01-16T07:06:13;0.30;99.90
39657;DHT22;25337;51.478;7.510;2024-01-16T07:08:39;0.30;99.90
39657;DHT22;25337;51.478;7.510;2024-01-16T07:11:04;0.30;99.90
39657;DHT22;25337;51.478;7.510;2024-01-16T07:13:33;0.30;99.90
39657;DHT22;25337;51.478;7.510;2024-01-16T07:15:59;0.30;99.90
39657;DHT22;25337;51.478;7.510;2024-01-16T07:18:27;0.20;99.90
39657;DHT22;25337;51.478;7.510;2024-01-16T07:20:52;0.20;99.90
39657;DHT22;25337;51.478;7.510;2024-01-16T07:23:18;0.30;99.90
39657;DHT22;25337;51.478;7.510;2024-01-16T07:25:44;0.20;99.90
39657;DHT22;25337;51.478;7.510;2024-01-16T07:28:09;0.30;99.90
39657;DHT22;25337;51.478;7.510;2024-01-16T07:30:35;0.30;99.90
39657;DHT22;25337;51.478;7.510;2024-01-16T07:33:02;0.30;99.90
39657;DHT22;25337;51.478;7.510;2024-01-16T07:35:28;0.20;99.90
39657;DHT22;25337;51.478;7.510;2024-01-16T07:37:54;0.20;99.90
39657;DHT22;25337;51.478;7.510;2024-01-16T07:40:19;0.20;99.90
39657;DHT22;25337;51.478;7.510;2024-01-16T07:42:45;0.20;99.90
39657;DHT22;25337;51.478;7.510;2024-01-16T07:45:11;0.30;99.90
39657;DHT22;25337;51.478;7.510;2024-01-16T07:47:37;0.20;99.90
39657;DHT22;25337;51.478;7.510;2024-01-16T07:50:03;0.20;99.90
39657;DHT22;25337;51.478;7.510;2024-01-16T07:52:29;0.20;99.90
39657;DHT22;25337;51.478;7.510;2024-01-16T07:54:55;0.30;99.90
39657;DHT22;25337;51.478;7.510;2024-01-16T07:57:20;0.30;99.90
39657;DHT22;25337;51.478;7.510;2024-01-16T07:59:46;0.30;99.90
39657;DHT22;25337;51.478;7.510;2024-01-16T08:02:12;0.30;99.90
39657;DHT22;25337;51.478;7.510;2024-01-16T08:04:37;0.30;99.90
39657;DHT22;25337;51.478;7.510;2024-01-16T08:07:03;0.30;99.90
39657;DHT22;25337;51.478;7.510;2024-01-16T08:09:29;0.30;99.90
39657;DHT22;25337;51.478;7.510;2024-01-16T08:11:54;0.30;99.90
39657;DHT22;25337;51.478;7.510;2024-01-16T08:14:20;0.30;99.90
39657;DHT22;25337;51.478;7.510;2024-01-16T08:16:46;0.30;99.90
39657;DHT22;25337;51.478;7.510;2024-01-16T08:19:11;0.30;99.90
39657;DHT22;25337;51.478;7.510;2024-01-16T08:21:37;1.80;99.90
39657;DHT22;25337;51.478;7.510;2024-01-16T08:24:03;0.30;99.90
39657;DHT22;25337;51.478;7.510;2024-01-16T08:26:28;0.30;99.90
39657;DHT22;25337;51.478;7.510;2024-01-16T08:28:54;0.30;99.90
39657;DHT22;25337;51.478;7.510;2024-01-16T08:31:20;0.30;99.90
39657;DHT22;25337;51.478;7.510;2024-01-16T08:33:45;0.30;99.90
39657;DHT22;25337;51.478;7.510;2024-01-16T08:36:11;0.30;99.90
39657;DHT22;25337;51.478;7.510;2024-01-16T08:38:37;0.30;99.90
39657;DHT22;25337;51.478;7.510;2024-01-16T08:41:02;0.30;99.90
39657;DHT22;25337;51.478;7.510;2024-01-16T08:43:34;0.30;99.90
39657;DHT22;25337;51.478;7.510;2024-01-16T08:46:00;0.20;99.90
39657;DHT22;25337;51.478;7.510;2024-01-16T08:48:26;0.20;99.90
39657;DHT22;25337;51.478;7.510;2024-01-16T08:50:52;0.20;99.90
39657;DHT22;25337;51.478;7.510;2024-01-16T08:53:19;0.20;99.90
39657;DHT22;25337;51.478;7.510;2024-01-16T08:55:45;0.20;99.90
39657;DHT22;25337;51.478;7.510;2024-01-16T08:58:11;0.20;99.90
39657;DHT22;25337;51.478;7.510;2024-01-16T09:00:36;0.30;99.90
39657;DHT22;25337;51.478;7.510;2024-01-16T09:03:03;0.30;99.90
39657;DHT22;25337;51.478;7.510;2024-01-16T09:05:29;0.30;99.90
39657;DHT22;25337;51.478;7.510;2024-01-16T09:07:55;0.30;99.90
39657;DHT22;25337;51.478;7.510;2024-01-16T09:10:20;0.40;99.90
39657;DHT22;25337;51.478;7.510;2024-01-16T09:12:46;0.40;99.90
39657;DHT22;25337;51.478;7.510;2024-01-16T09:15:13;0.40;99.90
39657;DHT22;25337;51.478;7.510;2024-01-16T09:17:39;0.40;99.90
39657;DHT22;25337;51.478;7.510;2024-01-16T09:20:06;0.40;99.90
39657;DHT22;25337;51.478;7.510;2024-01-16T09:22:32;0.50;99.90
39657;DHT22;25337;51.478;7.510;2024-01-16T09:24:57;0.40;99.90
39657;DHT22;25337;51.478;7.510;2024-01-16T09:27:23;0.40;99.90
39657;DHT22;25337;51.478;7.510;2024-01-16T09:29:49;0.40;99.90
39657;DHT22;25337;51.478;7.510;2024-01-16T09:32:14;0.40;99.90
39657;DHT22;25337;51.478;7.510;2024-01-16T09:34:40;0.40;99.90
39657;DHT22;25337;51.478;7.510;2024-01-16T09:37:06;0.40;99.90
39657;DHT22;25337;51.478;7.510;2024-01-16T09:39:31;0.40;99.90
39657;DHT22;25337;51.478;7.510;2024-01-16T09:42:00;0.40;99.90
39657;DHT22;25337;51.478;7.510;2024-01-16T09:44:28;0.50;99.90
39657;DHT22;25337;51.478;7.510;2024-01-16T09:46:55;0.50;99.90
39657;DHT22;25337;51.478;7.510;2024-01-16T09:49:24;0.60;99.90
39657;DHT22;25337;51.478;7.510;2024-01-16T09:51:50;0.60;99.90
39657;DHT22;25337;51.478;7.510;2024-01-16T09:54:16;0.60;99.90
39657;DHT22;25337;51.478;7.510;2024-01-16T09:56:43;0.70;99.90
39657;DHT22;25337;51.478;7.510;2024-01-16T09:59:14;0.80;99.90
39657;DHT22;25337;51.478;7.510;2024-01-16T10:01:41;0.80;99.90
39657;DHT22;25337;51.478;7.510;2024-01-16T10:04:07;0.80;99.90
39657;DHT22;25337;51.478;7.510;2024-01-16T10:06:33;0.90;99.90
39657;DHT22;25337;51.478;7.510;2024-01-16T10:08:59;0.90;99.90
39657;DHT22;25337;51.478;7.510;2024-01-16T10:11:25;0.90;99.90
39657;DHT22;25337;51.478;7.510;2024-01-16T10:13:51;0.90;99.90
39657;DHT22;25337;51.478;7.510;2024-01-16T10:16:17;0.80;99.90
39657;DHT22;25337;51.478;7.510;2024-01-16T10:18:42;0.80;99.90
39657;DHT22;25337;51.478;7.510;2024-01-16T10:21:21;0.80;99.90
39657;DHT22;25337;51.478;7.510;2024-01-16T10:23:49;0.80;99.90
39657;DHT22;25337;51.478;7.510;2024-01-16T10:26:14;0.80;99.90
39657;DHT22;25337;51.478;7.510;2024-01-16T10:28:42;0.70;99.90
39657;DHT22;25337;51.478;7.510;2024-01-16T10:31:11;0.70;99.90
39657;DHT22;25337;51.478;7.510;2024-01-16T10:33:39;0.80;99.90
39657;DHT22;25337;51.478;7.510;2024-01-16T10:38:36;0.90;99.90
39657;DHT22;25337;51.478;7.510;2024-01-16T10:43:36;0.90;99.90
39657;DHT22;25337;51.478;7.510;2024-01-16T10:46:09;0.80;99.90
39657;DHT22;25337;51.478;7.510;2024-01-16T10:48:35;0.90;99.90
39657;DHT22;25337;51.478;7.510;2024-01-16T10:51:02;0.90;99.90
39657;DHT22;25337;51.478;7.510;2024-01-16T10:53:32;1.00;99.90
39657;DHT22;25337;51.478;7.510;2024-01-16T10:56:00;1.10;99.90
39657;DHT22;25337;51.478;7.510;2024-01-16T10:58:26;1.20;99.90
39657;DHT22;25337;51.478;7.510;2024-01-16T11:00:57;1.20;99.90
39657;DHT22;25337;51.478;7.510;2024-01-16T11:03:29;1.30;99.90
39657;DHT22;25337;51.478;7.510;2024-01-16T11:05:57;1.40;99.90
39657;DHT22;25337;51.478;7.510;2024-01-16T11:08:23;1.50;99.90
39657;DHT22;25337;51.478;7.510;2024-01-16T11:10:55;1.60;99.90
39657;DHT22;25337;51.478;7.510;2024-01-16T11:13:21;1.60;99.90
39657;DHT22;25337;51.478;7.510;2024-01-16T11:15:48;1.90;99.90
39657;DHT22;25337;51.478;7.510;2024-01-16T11:18:16;1.90;99.90
39657;DHT22;25337;51.478;7.510;2024-01-16T11:20:42;2.20;99.90
39657;DHT22;25337;51.478;7.510;2024-01-16T11:23:10;2.60;99.90
39657;DHT22;25337;51.478;7.510;2024-01-16T11:25:35;3.40;99.90
39657;DHT22;25337;51.478;7.510;2024-01-16T11:28:12;3.70;99.90
39657;DHT22;25337;51.478;7.510;2024-01-16T11:30:38;3.80;99.90
39657;DHT22;25337;51.478;7.510;2024-01-16T11:33:04;3.80;99.90
39657;DHT22;25337;51.478;7.510;2024-01-16T11:35:34;3.90;99.90
39657;DHT22;25337;51.478;7.510;2024-01-16T11:38:04;4.00;99.90
39657;DHT22;25337;51.478;7.510;2024-01-16T11:40:32;4.20;99.90
39657;DHT22;25337;51.478;7.510;2024-01-16T11:42:58;4.20;99.90
39657;DHT22;25337;51.478;7.510;2024-01-16T11:48:13;4.20;99.90
39657;DHT22;25337;51.478;7.510;2024-01-16T11:50:39;4.30;99.90
39657;DHT22;25337;51.478;7.510;2024-01-16T11:53:05;4.40;99.90
39657;DHT22;25337;51.478;7.510;2024-01-16T11:55:35;4.10;99.90
39657;DHT22;25337;51.478;7.510;2024-01-16T12:00:52;3.70;99.90
39657;DHT22;25337;51.478;7.510;2024-01-16T12:03:20;3.70;99.90
39657;DHT22;25337;51.478;7.510;2024-01-16T12:05:59;3.60;99.90
39657;DHT22;25337;51.478;7.510;2024-01-16T12:08:26;3.20;99.90
39657;DHT22;25337;51.478;7.510;2024-01-16T12:10:51;3.20;99.90
39657;DHT22;25337;51.478;7.510;2024-01-16T12:13:17;3.60;99.90
39657;DHT22;25337;51.478;7.510;2024-01-16T12:15:43;4.90;99.90
39657;DHT22;25337;51.478;7.510;2024-01-16T12:18:09;4.90;99.90
39657;DHT22;25337;51.478;7.510;2024-01-16T12:20:38;5.10;99.90
39657;DHT22;25337;51.478;7.510;2024-01-16T12:23:06;5.50;99.90
39657;DHT22;25337;51.478;7.510;2024-01-16T12:25:34;6.20;97.60
39657;DHT22;25337;51.478;7.510;2024-01-16T12:28:01;6.20;96.30
39657;DHT22;25337;51.478;7.510;2024-01-16T12:30:31;5.40;99.50
39657;DHT22;25337;51.478;7.510;2024-01-16T12:33:10;4.90;99.10
39657;DHT22;25337;51.478;7.510;2024-01-16T12:35:43;4.70;99.90
39657;DHT22;25337;51.478;7.510;2024-01-16T12:38:13;4.80;99.90
39657;DHT22;25337;51.478;7.510;2024-01-16T12:40:47;4.80;99.90
39657;DHT22;25337;51.478;7.510;2024-01-16T12:43:13;5.20;99.10
39657;DHT22;25337;51.478;7.510;2024-01-16T12:45:39;5.60;97.50
39657;DHT22;25337;51.478;7.510;2024-01-16T12:48:06;6.00;98.00
39657;DHT22;25337;51.478;7.510;2024-01-16T12:50:33;6.20;95.40
39657;DHT22;25337;51.478;7.510;2024-01-16T12:53:07;6.30;94.70
39657;DHT22;25337;51.478;7.510;2024-01-16T12:55:36;6.50;96.00
39657;DHT22;25337;51.478;7.510;2024-01-16T13:00:46;6.70;91.70
39657;DHT22;25337;51.478;7.510;2024-01-16T13:03:20;5.90;94.10
39657;DHT22;25337;51.478;7.510;2024-01-16T13:05:59;5.30;97.80
39657;DHT22;25337;51.478;7.510;2024-01-16T13:08:25;5.10;97.60
39657;DHT22;25337;51.478;7.510;2024-01-16T13:11:05;4.60;99.80
39657;DHT22;25337;51.478;7.510;2024-01-16T13:13:31;4.20;99.90
39657;DHT22;25337;51.478;7.510;2024-01-16T13:15:58;4.20;99.90
39657;DHT22;25337;51.478;7.510;2024-01-16T13:18:25;4.20;99.50
39657;DHT22;25337;51.478;7.510;2024-01-16T13:20:58;4.30;99.90
39657;DHT22;25337;51.478;7.510;2024-01-16T13:23:28;4.40;99.90
39657;DHT22;25337;51.478;7.510;2024-01-16T13:25:55;4.60;99.90
39657;DHT22;25337;51.478;7.510;2024-01-16T13:28:25;5.20;97.20
39657;DHT22;25337;51.478;7.510;2024-01-16T13:30:51;5.70;96.30
39657;DHT22;25337;51.478;7.510;2024-01-16T13:33:17;5.70;96.60
39657;DHT22;25337;51.478;7.510;2024-01-16T13:35:44;5.40;97.10
39657;DHT22;25337;51.478;7.510;2024-01-16T13:38:12;4.50;99.00
39657;DHT22;25337;51.478;7.510;2024-01-16T13:40:38;4.10;99.90
39657;DHT22;25337;51.478;7.510;2024-01-16T13:43:04;4.20;99.90
39657;DHT22;25337;51.478;7.510;2024-01-16T13:45:32;3.90;99.90
39657;DHT22;25337;51.478;7.510;2024-01-16T13:47:59;3.60;99.90
39657;DHT22;25337;51.478;7.510;2024-01-16T13:50:26;3.50;99.90
39657;DHT22;25337;51.478;7.510;2024-01-16T13:52:52;3.30;99.90
39657;DHT22;25337;51.478;7.510;2024-01-16T13:55:19;3.10;99.90
39657;DHT22;25337;51.478;7.510;2024-01-16T13:57:44;2.80;99.90
39657;DHT22;25337;51.478;7.510;2024-01-16T14:00:12;2.40;99.90
39657;DHT22;25337;51.478;7.510;2024-01-16T14:02:43;2.10;99.90
39657;DHT22;25337;51.478;7.510;2024-01-16T14:05:13;2.00;99.90
39657;DHT22;25337;51.478;7.510;2024-01-16T14:07:52;1.90;99.90
39657;DHT22;25337;51.478;7.510;2024-01-16T14:10:19;1.80;99.90
39657;DHT22;25337;51.478;7.510;2024-01-16T14:12:47;1.80;99.90
39657;DHT22;25337;51.478;7.510;2024-01-16T14:15:13;1.80;99.90
39657;DHT22;25337;51.478;7.510;2024-01-16T14:17:55;1.80;99.90
39657;DHT22;25337;51.478;7.510;2024-01-16T14:20:22;2.00;99.90
39657;DHT22;25337;51.478;7.510;2024-01-16T14:22:55;2.10;99.90
39657;DHT22;25337;51.478;7.510;2024-01-16T14:25:21;2.20;99.90
39657;DHT22;25337;51.478;7.510;2024-01-16T14:27:57;2.10;99.90
39657;DHT22;25337;51.478;7.510;2024-01-16T14:30:23;2.00;99.90
39657;DHT22;25337;51.478;7.510;2024-01-16T14:32:51;1.90;99.90
39657;DHT22;25337;51.478;7.510;2024-01-16T14:35:17;2.00;99.90
39657;DHT22;25337;51.478;7.510;2024-01-16T14:37:45;2.00;99.90
39657;DHT22;25337;51.478;7.510;2024-01-16T14:40:10;1.90;99.90
39657;DHT22;25337;51.478;7.510;2024-01-16T14:42:46;1.60;99.90
39657;DHT22;25337;51.478;7.510;2024-01-16T14:45:13;1.40;99.90
39657;DHT22;25337;51.478;7.510;2024-01-16T14:47:39;1.20;99.90
39657;DHT22;25337;51.478;7.510;2024-01-16T14:50:06;1.10;99.90
39657;DHT22;25337;51.478;7.510;2024-01-16T14:52:32;0.90;99.90
39657;DHT22;25337;51.478;7.510;2024-01-16T14:55:01;0.80;99.90
39657;DHT22;25337;51.478;7.510;2024-01-16T14:57:27;0.70;99.90
39657;DHT22;25337;51.478;7.510;2024-01-16T14:59:55;0.60;99.90
39657;DHT22;25337;51.478;7.510;2024-01-16T15:02:21;0.50;99.90
39657;DHT22;25337;51.478;7.510;2024-01-16T15:04:47;0.50;99.90
39657;DHT22;25337;51.478;7.510;2024-01-16T15:07:14;0.40;99.90
39657;DHT22;25337;51.478;7.510;2024-01-16T15:09:40;0.30;99.90
39657;DHT22;25337;51.478;7.510;2024-01-16T15:12:06;0.20;99.90
39657;DHT22;25337;51.478;7.510;2024-01-16T15:14:35;0.20;99.90
39657;DHT22;25337;51.478;7.510;2024-01-16T15:17:02;0.10;99.90
39657;DHT22;25337;51.478;7.510;2024-01-16T15:19:28;0.10;99.90
39657;DHT22;25337;51.478;7.510;2024-01-16T15:21:54;0.00;99.90
39657;DHT22;25337;51.478;7.510;2024-01-16T15:24:20;0.00;99.90
39657;DHT22;25337;51.478;7.510;2024-01-16T15:26:57;-0.10;99.90
39657;DHT22;25337;51.478;7.510;2024-01-16T15:29:23;-0.10;99.90
39657;DHT22;25337;51.478;7.510;2024-01-16T15:31:49;-0.20;99.90
39657;DHT22;25337;51.478;7.510;2024-01-16T15:34:17;-0.20;99.90
39657;DHT22;25337;51.478;7.510;2024-01-16T15:36:44;-0.40;99.90
39657;DHT22;25337;51.478;7.510;2024-01-16T15:39:10;-0.40;99.90
39657;DHT22;25337;51.478;7.510;2024-01-16T15:41:36;-0.40;99.90
39657;DHT22;25337;51.478;7.510;2024-01-16T15:44:01;-0.50;99.90
39657;DHT22;25337;51.478;7.510;2024-01-16T15:46:28;-0.60;99.90
39657;DHT22;25337;51.478;7.510;2024-01-16T15:48:53;-0.70;99.90
39657;DHT22;25337;51.478;7.510;2024-01-16T15:51:22;-0.70;99.90
39657;DHT22;25337;51.478;7.510;2024-01-16T15:53:48;-0.80;99.90